South Tidworth, United Kingdom
Current Conditions -  °F | °C
As of 6:50 PM on Thursday 30 Oct 2014 (Local Time) from EGDM Reporting Station
Haze Haze  
Wind Chill: 59°   Ceiling: 700
Heat Index: 59°   Visibility: 4mi
Dew Point: 57°   Wind: 9mph
Humidity: 94%   Direction: 140°SE
Pressure: 30.03"   Gusts: NA
Location:  51.23°N, 1.66°W
Report Text: EGDM 301850Z AUTO 14008KT 6000 BR OVC007/// 15/14 Q1017
Loading
Personal Weather Stations






























Interactive Weather Map
Tropical Storm Tracking
New forecast layout! Learn more

10-Day Weather Forecast

Advertisements
Track Severe Weather on mobile